Terminal Aerodrome Forecast
Issued by NWS

Home | Current Version | Previous Version | Text Only | Print | Product List | Glossary On
Versions: 1 2 3 4 5 6 7 8 9 10 11 12 13 14 15 16 17 18 19
000
FTUS45 KTFX 252300 CCA
TAFGTF
TAF COR
KGTF 252350Z 2600/2624 19007KT P6SM SCT180
     FM260500 21010KT P6SM SCT060 BKN100
     FM260900 26010KT P6SM VCSH SCT020 OVC035
      TEMPO 2612/2616 4SM -SN BR BKN015
     FM262000 22010KT P6SM SCT030 BKN050=

USA.gov is the U.S. government's official web portal to all federal, state and local government web resources and services.